Time;durP1;ratioP1;P1;durP2;ratioP2;P2;SDS_P1;SDS_P2;PMS_P1;PMS_P2;Temp;Humidity;BMP_temperature;BMP_pressure;BME280_temperature;BME280_humidity;BME280_pressure;Samples;Min_cycle;Max_cycle;Signal;HPM_P1;HPM_P2
2024/04/13 00:08:19;;;;;;;0.00;0.00;;;;;;;;;;33636884;26;20717;-77
2024/04/13 00:23:25;;;;;;;0.00;0.00;;;;;;;;;;33614980;26;20260;-77
2024/04/13 00:38:42;;;;;;;0.00;0.00;;;;;;;;;;33631713;26;20328;-77
2024/04/13 00:53:48;;;;;;;0.00;0.00;;;;;;;;;;33660555;26;20649;-77
2024/04/13 01:08:54;;;;;;;0.00;0.00;;;;;;;;;;33634677;26;20264;-77
2024/04/13 01:24:07;;;;;;;0.00;0.00;;;;;;;;;;33647962;26;20276;-77
2024/04/13 01:39:40;;;;;;;0.00;0.00;;;;;;;;;;33635589;26;20272;-77
2024/04/13 01:54:46;;;;;;;0.00;0.00;;;;;;;;;;33591918;26;20643;-77
2024/04/13 02:09:52;;;;;;;0.00;0.00;;;;;;;;;;33595369;26;20248;-77
2024/04/13 02:24:58;;;;;;;0.00;0.00;;;;;;;;;;33599471;26;20713;-77
2024/04/13 02:40:31;;;;;;;0.00;0.00;;;;;;;;;;33599505;26;20267;-77
2024/04/13 02:55:37;;;;;;;0.00;0.00;;;;;;;;;;33603511;26;20256;-77
2024/04/13 03:10:43;;;;;;;0.00;0.00;;;;;;;;;;33607311;26;20348;-77
2024/04/13 03:25:50;;;;;;;0.00;0.00;;;;;;;;;;33597291;26;20640;-77
2024/04/13 03:41:22;;;;;;;0.00;0.00;;;;;;;;;;33608393;26;20268;-77
2024/04/13 03:56:28;;;;;;;0.00;0.00;;;;;;;;;;33618091;26;20313;-77
2024/04/13 04:11:34;;;;;;;0.00;0.00;;;;;;;;;;33616736;26;20271;-77
2024/04/13 04:26:40;;;;;;;0.00;0.00;;;;;;;;;;33611127;26;20302;-77
2024/04/13 04:42:13;;;;;;;0.00;0.00;;;;;;;;;;33611173;26;20303;-77
2024/04/13 04:57:19;;;;;;;0.00;0.00;;;;;;;;;;33606120;26;20651;-77
2024/04/13 05:12:25;;;;;;;0.00;0.00;;;;;;;;;;33610598;26;23282;-77
2024/04/13 05:27:32;;;;;;;0.00;0.00;;;;;;;;;;33614199;26;20260;-77
2024/04/13 05:43:04;;;;;;;0.00;0.00;;;;;;;;;;33634577;26;20597;-77
2024/04/13 05:58:11;;;;;;;0.00;0.00;;;;;;;;;;33633162;26;20274;-77
2024/04/13 06:13:17;;;;;;;0.00;0.00;;;;;;;;;;33631549;26;20264;-77
2024/04/13 06:28:23;;;;;;;0.00;0.00;;;;;;;;;;33631942;26;20260;-77
2024/04/13 06:43:56;;;;;;;0.00;0.00;;;;;;;;;;33631787;26;20290;-77
2024/04/13 06:59:03;;;;;;;0.00;0.00;;;;;;;;;;33617507;26;20312;-77
2024/04/13 07:14:10;;;;;;;0.00;0.00;;;;;;;;;;33633105;26;20293;-77
2024/04/13 07:29:16;;;;;;;0.00;0.00;;;;;;;;;;33626419;26;20744;-77
2024/04/13 07:44:49;;;;;;;0.00;0.00;;;;;;;;;;33636192;26;20262;-77
2024/04/13 07:59:55;;;;;;;0.00;0.00;;;;;;;;;;33626755;26;20756;-77
2024/04/13 08:15:02;;;;;;;0.00;0.00;;;;;;;;;;33642688;26;20299;-77
2024/04/13 08:30:09;;;;;;;0.00;0.00;;;;;;;;;;33367124;26;20367;-77
2024/04/13 08:45:41;;;;;;;0.00;0.00;;;;;;;;;;33353723;26;20295;-77
2024/04/13 09:00:50;;;;;;;0.00;0.00;;;;;;;;;;33353075;26;20269;-77
2024/04/13 09:15:57;;;;;;;0.00;0.00;;;;;;;;;;33371142;26;20265;-77
2024/04/13 09:31:03;;;;;;;0.00;0.00;;;;;;;;;;33385459;26;20307;-77
2024/04/13 09:46:35;;;;;;;0.00;0.00;;;;;;;;;;33371368;26;20265;-77
2024/04/13 10:01:41;;;;;;;0.00;0.00;;;;;;;;;;33369248;26;20269;-76
2024/04/13 10:16:48;;;;;;;0.00;0.00;;;;;;;;;;33371287;26;20832;-77
2024/04/13 10:31:57;;;;;;;0.00;0.00;;;;;;;;;;33414624;26;20358;-77
2024/04/13 10:47:10;;;;;;;0.00;0.00;;;;;;;;;;33417195;26;20350;-77
2024/04/13 11:02:17;;;;;;;0.00;0.00;;;;;;;;;;33434489;26;20255;-77
2024/04/13 11:17:23;;;;;;;0.00;0.00;;;;;;;;;;33420450;26;20260;-77
2024/04/13 11:32:30;;;;;;;0.00;0.00;;;;;;;;;;33438846;26;20628;-77
2024/04/13 11:48:02;;;;;;;0.00;0.00;;;;;;;;;;33427526;26;20300;-77
2024/04/13 12:03:09;;;;;;;0.00;0.00;;;;;;;;;;33435304;26;20272;-77
2024/04/13 12:18:15;;;;;;;0.00;0.00;;;;;;;;;;33440074;26;20272;-77
2024/04/13 12:33:21;;;;;;;0.00;0.00;;;;;;;;;;33436945;26;20258;-77
2024/04/13 12:48:54;;;;;;;0.00;0.00;;;;;;;;;;33372398;26;20257;-77
2024/04/13 13:04:00;;;;;;;0.00;0.00;;;;;;;;;;33414417;26;20265;-77
2024/04/13 13:19:06;;;;;;;0.00;0.00;;;;;;;;;;33421942;26;20366;-77
2024/04/13 13:34:12;;;;;;;0.00;0.00;;;;;;;;;;33431871;26;20272;-77
2024/04/13 13:49:45;;;;;;;0.00;0.00;;;;;;;;;;33445286;26;20260;-77
2024/04/13 14:04:51;;;;;;;0.00;0.00;;;;;;;;;;33408367;26;20260;-77
2024/04/13 14:19:57;;;;;;;0.00;0.00;;;;;;;;;;33400201;26;20358;-77
2024/04/13 14:35:06;;;;;;;0.00;0.00;;;;;;;;;;33371971;26;20260;-77
2024/04/13 14:50:38;;;;;;;0.00;0.00;;;;;;;;;;33361120;26;20384;-77
2024/04/13 15:05:45;;;;;;;0.00;0.00;;;;;;;;;;33362569;26;20326;-77
2024/04/13 15:20:51;;;;;;;0.00;0.00;;;;;;;;;;33392042;26;20267;-77
2024/04/13 15:35:59;;;;;;;0.00;0.00;;;;;;;;;;33369943;26;20264;-77
2024/04/13 15:51:32;;;;;;;0.00;0.00;;;;;;;;;;33400791;26;20710;-77
2024/04/13 16:06:38;;;;;;;0.00;0.00;;;;;;;;;;33408081;26;20371;-77
2024/04/13 16:21:44;;;;;;;0.00;0.00;;;;;;;;;;33427580;26;20260;-77
2024/04/13 16:36:50;;;;;;;0.00;0.00;;;;;;;;;;33426500;26;20679;-77
2024/04/13 16:52:24;;;;;;;0.00;0.00;;;;;;;;;;33381392;26;20367;-77
2024/04/13 17:07:31;;;;;;;0.00;0.00;;;;;;;;;;33420016;26;20257;-77
2024/04/13 17:22:37;;;;;;;0.00;0.00;;;;;;;;;;33406854;26;20290;-77
2024/04/13 17:37:43;;;;;;;0.00;0.00;;;;;;;;;;33423011;26;20272;-77
2024/04/13 17:53:16;;;;;;;0.00;0.00;;;;;;;;;;33402319;26;20269;-77
2024/04/13 18:08:23;;;;;;;0.00;0.00;;;;;;;;;;33405426;26;20257;-77
2024/04/13 18:23:29;;;;;;;0.00;0.00;;;;;;;;;;33422520;26;20257;-77
2024/04/13 18:38:35;;;;;;;0.00;0.00;;;;;;;;;;33448260;26;20266;-77
2024/04/13 18:54:07;;;;;;;0.00;0.00;;;;;;;;;;33444990;26;20714;-78
2024/04/13 19:09:14;;;;;;;0.00;0.00;;;;;;;;;;33436083;26;20311;-77
2024/04/13 19:24:20;;;;;;;0.00;0.00;;;;;;;;;;33451767;26;20260;-77
2024/04/13 19:39:26;;;;;;;0.00;0.00;;;;;;;;;;33437365;26;20281;-77
2024/04/13 19:54:59;;;;;;;0.00;0.00;;;;;;;;;;33451139;26;20362;-77
2024/04/13 20:10:09;;;;;;;0.00;0.00;;;;;;;;;;33437729;26;20781;-77
2024/04/13 20:25:17;;;;;;;0.00;0.00;;;;;;;;;;33441187;26;20298;-77
2024/04/13 20:40:23;;;;;;;0.00;0.00;;;;;;;;;;33448834;26;20703;-77
2024/04/13 20:55:55;;;;;;;0.00;0.00;;;;;;;;;;33460426;26;20273;-77
2024/04/13 21:11:02;;;;;;;0.00;0.00;;;;;;;;;;33483949;26;20359;-77
2024/04/13 21:26:13;;;;;;;0.00;0.00;;;;;;;;;;33450963;26;20257;-78
2024/04/13 21:41:19;;;;;;;0.00;0.00;;;;;;;;;;33432325;26;20260;-77
2024/04/13 21:56:52;;;;;;;0.00;0.00;;;;;;;;;;33410046;26;20259;-77
2024/04/13 22:12:00;;;;;;;0.00;0.00;;;;;;;;;;33421678;26;20307;-77
2024/04/13 22:27:08;;;;;;;0.00;0.00;;;;;;;;;;33416861;26;20257;-77
2024/04/13 22:42:14;;;;;;;0.00;0.00;;;;;;;;;;33415710;26;20588;-77
2024/04/13 22:57:47;;;;;;;0.00;0.00;;;;;;;;;;33410287;26;20264;-77
2024/04/13 23:12:53;;;;;;;0.00;0.00;;;;;;;;;;33427478;26;20339;-77
2024/04/13 23:27:59;;;;;;;0.00;0.00;;;;;;;;;;33593647;26;20256;-77
2024/04/13 23:43:06;;;;;;;0.00;0.00;;;;;;;;;;33661606;26;20259;-77
2024/04/13 23:58:38;;;;;;;0.00;0.00;;;;;;;;;;33623227;26;20762;-77
